Time;durP1;ratioP1;P1;durP2;ratioP2;P2;SDS_P1;SDS_P2;PMS_P1;PMS_P2;Temp;Humidity;BMP_temperature;BMP_pressure;BME280_temperature;BME280_humidity;BME280_pressure;Samples;Min_cycle;Max_cycle;Signal;HPM_P1;HPM_P2
2021/01/02 00:02:14;;;;;;;1.90;1.30;;;20.60;74.30;;;;;;5068045;28;20036;-64
2021/01/02 00:05:05;;;;;;;2.17;0.90;;;20.70;74.30;;;;;;5073514;28;20336;-63
2021/01/02 00:08:14;;;;;;;1.40;0.95;;;20.80;74.30;;;;;;5074123;28;20500;-63
2021/01/02 00:11:07;;;;;;;2.05;0.90;;;20.80;74.20;;;;;;5071269;28;20044;-63
2021/01/02 00:13:55;;;;;;;0.70;0.70;;;20.90;74.30;;;;;;5073649;28;20094;-63
2021/01/02 00:16:34;;;;;;;3.70;1.00;;;20.90;74.40;;;;;;5078718;28;20570;-62
2021/01/02 00:19:18;;;;;;;3.50;1.00;;;21.00;74.50;;;;;;5063176;28;20431;-62
2021/01/02 00:22:01;;;;;;;7.13;1.27;;;21.10;74.70;;;;;;5073129;28;20037;-62
2021/01/02 00:24:37;;;;;;;3.78;0.98;;;21.10;74.70;;;;;;5076109;28;20229;-62
2021/01/02 00:27:21;;;;;;;3.20;0.90;;;21.20;74.70;;;;;;5078037;28;20044;-63
2021/01/02 00:30:04;;;;;;;1.02;0.70;;;21.20;74.60;;;;;;5073037;28;20752;-62
2021/01/02 00:32:45;;;;;;;3.95;0.93;;;21.30;74.60;;;;;;5071832;28;20446;-62
2021/01/02 00:35:20;;;;;;;4.07;0.88;;;21.30;74.60;;;;;;5080465;28;20124;-62
2021/01/02 00:38:03;;;;;;;1.88;1.00;;;21.30;74.60;;;;;;5082250;28;20406;-62
2021/01/02 00:40:38;;;;;;;2.30;0.90;;;21.40;74.60;;;;;;5071744;28;20043;-62
2021/01/02 00:43:14;;;;;;;1.45;1.00;;;21.40;74.50;;;;;;5069289;28;20488;-62
2021/01/02 00:45:43;;;;;;;1.95;1.00;;;21.50;74.50;;;;;;5065763;28;20566;-61
2021/01/02 00:48:16;;;;;;;1.38;0.80;;;21.50;74.60;;;;;;5056594;28;20044;-62
2021/01/02 00:50:46;;;;;;;1.35;1.17;;;21.50;74.50;;;;;;5082403;28;20044;-62
2021/01/02 00:54:00;;;;;;;1.05;0.90;;;21.60;74.30;;;;;;5068963;28;20044;-61
2021/01/02 00:57:10;;;;;;;1.88;1.00;;;21.60;74.20;;;;;;5052751;28;20044;-61
2021/01/02 01:00:08;;;;;;;3.08;1.00;;;21.60;73.90;;;;;;5055353;28;20366;-61
2021/01/02 01:03:06;;;;;;;1.60;1.00;;;21.50;73.70;;;;;;5074728;28;20044;-62
2021/01/02 01:05:41;;;;;;;1.20;0.80;;;21.50;73.40;;;;;;5076701;28;20042;-61
2021/01/02 01:08:16;;;;;;;1.35;0.68;;;21.50;73.20;;;;;;5077587;28;20047;-61
2021/01/02 01:10:48;;;;;;;2.97;1.00;;;21.50;73.10;;;;;;5073843;28;20713;-60
2021/01/02 01:13:24;;;;;;;1.77;1.17;;;21.50;72.70;;;;;;5074957;28;20106;-61
2021/01/02 01:15:57;;;;;;;1.08;0.98;;;21.60;72.90;;;;;;5051532;28;20046;-61
2021/01/02 01:18:53;;;;;;;3.78;1.17;;;21.60;72.70;;;;;;5067042;28;20453;-61
2021/01/02 01:21:29;;;;;;;3.63;0.95;;;21.60;72.80;;;;;;5068839;28;20122;-61
2021/01/02 01:24:35;;;;;;;2.55;0.80;;;21.60;72.70;;;;;;5066371;28;20062;-61
2021/01/02 01:27:05;;;;;;;1.75;1.00;;;21.70;72.60;;;;;;5027048;28;20049;-61
2021/01/02 01:29:49;;;;;;;3.50;1.55;;;21.70;72.50;;;;;;5068075;28;20044;-61
2021/01/02 01:32:24;;;;;;;2.60;0.85;;;21.80;72.50;;;;;;5079889;28;20040;-61
2021/01/02 01:35:01;;;;;;;1.98;0.73;;;21.80;72.40;;;;;;5070197;28;20051;-61
2021/01/02 01:37:34;;;;;;;1.48;0.93;;;21.80;72.30;;;;;;5074696;28;20496;-61
2021/01/02 01:40:07;;;;;;;1.80;1.10;;;21.90;72.30;;;;;;5080332;28;20036;-61
2021/01/02 01:42:40;;;;;;;1.10;0.90;;;21.90;72.20;;;;;;5069138;28;20051;-66
2021/01/02 01:45:24;;;;;;;1.13;1.05;;;22.00;72.20;;;;;;5070049;28;20127;-61
2021/01/02 01:48:09;;;;;;;2.38;1.27;;;22.00;72.20;;;;;;5061800;28;20044;-61
2021/01/02 01:50:52;;;;;;;1.15;0.93;;;22.00;72.10;;;;;;5067777;28;20136;-61
2021/01/02 01:53:57;;;;;;;2.50;1.15;;;22.10;72.10;;;;;;5067872;28;20108;-68
2021/01/02 01:56:49;;;;;;;1.60;0.90;;;22.10;72.00;;;;;;5064276;28;20033;-62
2021/01/02 01:59:22;;;;;;;1.52;0.88;;;22.10;71.90;;;;;;5063530;28;20135;-66
2021/01/02 02:01:55;;;;;;;1.30;0.98;;;22.10;71.90;;;;;;5064844;28;20131;-67
2021/01/02 02:04:44;;;;;;;0.75;0.75;;;22.20;71.90;;;;;;5062874;28;20044;-67
2021/01/02 02:07:17;;;;;;;2.95;1.02;;;22.20;71.90;;;;;;5069517;28;20368;-68
2021/01/02 02:10:01;;;;;;;0.80;0.80;;;22.20;71.90;;;;;;5062618;28;20044;-61
2021/01/02 02:12:34;;;;;;;1.75;0.80;;;22.20;71.90;;;;;;5067746;28;20055;-64
2021/01/02 02:15:09;;;;;;;2.35;1.00;;;22.30;71.70;;;;;;5068472;28;20449;-65
2021/01/02 02:17:42;;;;;;;1.33;0.90;;;22.30;71.70;;;;;;5073382;28;20044;-65
2021/01/02 02:20:18;;;;;;;1.20;1.10;;;22.30;71.80;;;;;;5072874;28;20048;-65
2021/01/02 02:23:05;;;;;;;1.08;0.98;;;22.30;71.80;;;;;;5068506;28;20040;-64
2021/01/02 02:25:48;;;;;;;1.67;0.82;;;22.40;71.70;;;;;;5073121;28;20051;-65
2021/01/02 02:28:35;;;;;;;1.08;1.00;;;22.40;71.60;;;;;;5075989;28;20036;-67
2021/01/02 02:31:07;;;;;;;1.38;1.17;;;22.40;71.60;;;;;;5072205;28;20040;-67
2021/01/02 02:33:37;;;;;;;1.95;1.00;;;22.40;71.60;;;;;;5071432;28;20043;-68
2021/01/02 02:36:07;;;;;;;2.58;0.95;;;22.50;71.70;;;;;;5065787;28;20131;-67
2021/01/02 02:38:38;;;;;;;3.63;1.25;;;22.50;71.60;;;;;;5052601;28;20097;-62
2021/01/02 02:41:11;;;;;;;1.15;1.10;;;22.50;71.60;;;;;;5077971;28;20391;-68
2021/01/02 02:43:46;;;;;;;0.90;0.90;;;22.50;71.50;;;;;;5070999;28;20051;-68
2021/01/02 02:46:17;;;;;;;4.53;0.75;;;22.60;71.50;;;;;;5065872;28;20044;-62
2021/01/02 02:48:54;;;;;;;0.88;0.88;;;22.60;71.50;;;;;;5075258;28;20055;-68
2021/01/02 02:51:27;;;;;;;0.80;0.80;;;22.70;71.50;;;;;;5068088;28;20094;-67
2021/01/02 02:53:58;;;;;;;1.05;0.90;;;22.60;71.40;;;;;;5082159;28;20043;-67
2021/01/02 02:56:29;;;;;;;1.02;1.02;;;22.70;71.40;;;;;;5076785;28;20054;-67
2021/01/02 02:59:00;;;;;;;1.02;1.02;;;22.70;71.50;;;;;;5073286;28;20028;-68
2021/01/02 03:01:31;;;;;;;;;;;22.70;71.40;;;;;;5069096;28;20071;-62
2021/01/02 03:04:02;;;;;;;0.73;0.73;;;22.80;71.50;;;;;;5078157;28;20011;-61
2021/01/02 03:06:35;;;;;;;3.08;1.42;;;22.80;71.40;;;;;;5075022;28;20527;-66
2021/01/02 03:09:06;;;;;;;1.10;1.00;;;22.80;71.30;;;;;;5069266;28;20094;-67
2021/01/02 03:11:41;;;;;;;1.80;0.98;;;22.80;71.40;;;;;;5070985;28;20372;-61
2021/01/02 03:14:14;;;;;;;1.48;0.80;;;22.80;71.40;;;;;;5071248;28;20037;-66
2021/01/02 03:16:44;;;;;;;2.42;0.80;;;22.80;71.30;;;;;;5065434;28;20175;-66
2021/01/02 03:19:14;;;;;;;0.98;0.90;;;22.80;71.20;;;;;;5066752;28;20036;-67
2021/01/02 03:21:45;;;;;;;;;;;22.80;71.20;;;;;;5074702;28;20480;-68
2021/01/02 03:24:18;;;;;;;1.30;0.80;;;22.80;71.20;;;;;;5074629;28;19934;-61
2021/01/02 03:26:48;;;;;;;1.70;1.05;;;22.90;71.20;;;;;;5075001;28;20480;-60
2021/01/02 03:29:17;;;;;;;2.47;1.10;;;22.80;71.10;;;;;;5082800;28;20058;-67
2021/01/02 03:31:47;;;;;;;2.55;1.20;;;22.80;71.10;;;;;;5067850;28;20547;-61
2021/01/02 03:34:17;;;;;;;2.38;1.38;;;22.80;71.80;;;;;;5076347;28;20128;-68
2021/01/02 03:36:46;;;;;;;2.13;1.30;;;22.80;71.10;;;;;;5071429;28;20036;-61
2021/01/02 03:39:16;;;;;;;4.10;1.15;;;22.80;71.10;;;;;;5068320;28;20052;-68
2021/01/02 03:41:47;;;;;;;3.10;1.55;;;22.80;71.10;;;;;;5048959;28;20036;-68
2021/01/02 03:44:19;;;;;;;2.83;1.20;;;22.80;71.10;;;;;;5079540;28;20120;-67
2021/01/02 03:46:49;;;;;;;3.90;1.20;;;22.80;71.10;;;;;;5068985;28;20044;-68
2021/01/02 03:49:20;;;;;;;4.28;1.58;;;22.80;71.20;;;;;;5068746;28;20087;-69
2021/01/02 03:51:52;;;;;;;2.67;1.60;;;22.80;71.20;;;;;;5081424;28;20097;-68
2021/01/02 03:54:24;;;;;;;2.35;1.33;;;22.80;71.10;;;;;;5071844;28;20063;-71
2021/01/02 03:56:56;;;;;;;7.90;1.48;;;22.70;70.90;;;;;;5073361;28;20037;-68
2021/01/02 03:59:28;;;;;;;2.90;1.10;;;22.70;71.10;;;;;;5048421;28;20076;-69
2021/01/02 04:02:00;;;;;;;4.07;1.63;;;22.70;71.10;;;;;;5050075;28;20045;-69
2021/01/02 04:04:31;;;;;;;3.00;1.45;;;22.70;71.20;;;;;;5080232;28;20047;-68
2021/01/02 04:07:03;;;;;;;5.53;1.38;;;22.70;71.20;;;;;;5077152;28;20052;-69
2021/01/02 04:09:35;;;;;;;2.67;1.83;;;22.70;71.40;;;;;;5075938;28;20044;-68
2021/01/02 04:12:07;;;;;;;2.25;1.55;;;22.70;71.30;;;;;;5074529;28;20044;-68
2021/01/02 04:14:38;;;;;;;2.35;1.35;;;22.70;71.40;;;;;;5072571;28;20742;-68
2021/01/02 04:17:08;;;;;;;1.80;1.38;;;22.70;71.40;;;;;;5065295;28;20047;-67
2021/01/02 04:19:40;;;;;;;1.75;1.15;;;22.60;71.40;;;;;;5068983;28;20048;-61
2021/01/02 04:22:11;;;;;;;2.05;1.30;;;22.60;71.40;;;;;;5085947;28;20131;-68
2021/01/02 04:24:41;;;;;;;1.80;0.95;;;22.70;72.20;;;;;;5081335;28;20136;-68
2021/01/02 04:27:10;;;;;;;2.92;1.58;;;22.70;71.50;;;;;;5079618;28;20050;-61
2021/01/02 04:29:43;;;;;;;1.63;1.08;;;22.60;71.60;;;;;;5075326;28;20128;-68
2021/01/02 04:32:14;;;;;;;4.43;1.80;;;22.70;71.60;;;;;;5079043;28;20050;-68
2021/01/02 04:34:46;;;;;;;1.20;1.10;;;22.60;71.70;;;;;;5074748;28;20048;-68
2021/01/02 04:37:16;;;;;;;1.83;0.90;;;22.60;71.60;;;;;;5074138;28;20052;-68
2021/01/02 04:39:45;;;;;;;2.70;1.27;;;22.60;71.80;;;;;;5069669;28;20047;-68
2021/01/02 04:42:19;;;;;;;3.60;1.55;;;22.60;71.80;;;;;;5072369;28;20044;-68
2021/01/02 04:44:53;;;;;;;2.00;1.30;;;22.60;71.90;;;;;;5073865;28;20037;-61
2021/01/02 04:47:23;;;;;;;2.13;1.48;;;22.60;72.00;;;;;;5078270;28;20284;-69
2021/01/02 04:49:53;;;;;;;4.10;1.50;;;22.70;72.00;;;;;;5066712;28;20045;-62
2021/01/02 04:52:25;;;;;;;1.98;1.50;;;22.60;72.00;;;;;;5070244;28;20147;-69
2021/01/02 04:54:59;;;;;;;2.70;1.30;;;22.70;72.10;;;;;;5074435;28;20044;-67
2021/01/02 04:57:38;;;;;;;1.70;1.17;;;22.70;72.10;;;;;;5051662;28;20048;-68
2021/01/02 05:00:10;;;;;;;2.03;1.17;;;22.70;72.20;;;;;;5070377;28;20040;-68
2021/01/02 05:02:41;;;;;;;2.60;1.40;;;22.70;72.20;;;;;;5065965;28;20047;-67
2021/01/02 05:05:13;;;;;;;1.83;1.15;;;22.70;72.20;;;;;;5065145;28;20047;-68
2021/01/02 05:07:46;;;;;;;1.48;0.98;;;22.70;72.30;;;;;;5078298;28;20036;-67
2021/01/02 05:10:18;;;;;;;3.05;1.35;;;22.70;72.30;;;;;;5073909;28;20036;-69
2021/01/02 05:12:51;;;;;;;3.05;1.25;;;22.70;72.40;;;;;;5073778;28;20037;-68
2021/01/02 05:15:21;;;;;;;1.60;1.00;;;22.70;72.40;;;;;;5070984;28;20043;-68
2021/01/02 05:17:51;;;;;;;2.47;1.45;;;22.70;72.50;;;;;;5083524;28;20074;-68
2021/01/02 05:20:21;;;;;;;2.15;1.15;;;22.80;73.00;;;;;;5066907;28;20472;-68
2021/01/02 05:22:53;;;;;;;3.05;1.10;;;22.80;72.70;;;;;;5070916;28;20393;-69
2021/01/02 05:25:23;;;;;;;1.50;1.00;;;22.80;72.70;;;;;;5079898;28;20040;-69
2021/01/02 05:27:53;;;;;;;3.50;1.48;;;22.80;73.50;;;;;;5075339;28;20471;-69
2021/01/02 05:30:29;;;;;;;1.75;1.00;;;22.80;73.50;;;;;;5058131;28;20048;-68
2021/01/02 05:33:03;;;;;;;1.35;1.25;;;22.80;72.90;;;;;;5067694;28;20124;-69
2021/01/02 05:35:36;;;;;;;1.73;1.00;;;22.80;72.80;;;;;;5076392;28;20048;-68
2021/01/02 05:38:26;;;;;;;2.05;1.33;;;22.80;73.60;;;;;;5069877;28;20042;-61
2021/01/02 05:40:59;;;;;;;1.23;1.00;;;22.80;72.90;;;;;;5075472;28;20032;-68
2021/01/02 05:43:31;;;;;;;1.98;1.00;;;22.80;73.00;;;;;;5067324;28;20489;-68
2021/01/02 05:46:07;;;;;;;1.42;1.13;;;22.90;73.10;;;;;;5074928;28;20039;-68
2021/01/02 05:48:37;;;;;;;3.05;1.67;;;22.90;73.10;;;;;;5068495;28;20134;-68
2021/01/02 05:51:12;;;;;;;;;;;22.80;73.10;;;;;;5070126;28;20043;-69
2021/01/02 05:53:43;;;;;;;1.10;1.00;;;22.90;73.10;;;;;;5068986;28;20221;-69
2021/01/02 05:56:15;;;;;;;1.83;1.40;;;22.90;73.10;;;;;;5071377;28;20041;-68
2021/01/02 05:58:46;;;;;;;1.70;1.38;;;22.90;73.20;;;;;;5063533;28;20044;-63
2021/01/02 06:01:17;;;;;;;1.75;1.15;;;22.90;73.20;;;;;;5069265;28;20044;-67
2021/01/02 06:03:50;;;;;;;;;;;22.90;73.30;;;;;;5070362;28;20037;-62
2021/01/02 06:06:22;;;;;;;1.80;1.67;;;22.90;73.30;;;;;;5071873;28;19928;-68
2021/01/02 06:08:53;;;;;;;1.55;1.45;;;22.90;73.30;;;;;;5070895;28;20049;-61
2021/01/02 06:11:24;;;;;;;2.38;1.25;;;22.90;73.50;;;;;;5071202;28;20063;-68
2021/01/02 06:13:56;;;;;;;3.03;1.13;;;22.90;73.50;;;;;;5066100;28;20070;-68
2021/01/02 06:16:28;;;;;;;1.65;1.23;;;23.00;73.50;;;;;;5061152;28;20052;-68
2021/01/02 06:18:58;;;;;;;3.33;1.88;;;22.90;73.50;;;;;;5074783;28;20296;-68
2021/01/02 06:21:32;;;;;;;4.03;1.60;;;23.00;73.50;;;;;;5070998;28;20040;-61
2021/01/02 06:24:02;;;;;;;2.63;1.58;;;23.00;73.60;;;;;;5068703;28;20131;-61
2021/01/02 06:26:32;;;;;;;1.45;1.20;;;23.00;73.60;;;;;;5074474;28;20043;-68
2021/01/02 06:29:05;;;;;;;1.50;1.40;;;23.00;73.60;;;;;;5069739;28;20148;-68
2021/01/02 06:31:35;;;;;;;2.38;2.15;;;23.00;73.60;;;;;;5065675;28;20048;-67
2021/01/02 06:34:07;;;;;;;1.95;1.42;;;22.90;73.70;;;;;;5066298;28;20044;-61
2021/01/02 06:36:41;;;;;;;1.20;0.98;;;23.00;73.70;;;;;;5071504;28;20426;-68
2021/01/02 06:39:17;;;;;;;1.60;1.50;;;23.00;73.80;;;;;;5072629;28;20038;-69
2021/01/02 06:41:55;;;;;;;1.67;1.27;;;22.90;73.60;;;;;;5072620;28;20547;-67
2021/01/02 06:44:46;;;;;;;1.88;1.45;;;23.00;73.70;;;;;;5073159;28;20040;-68
2021/01/02 06:47:21;;;;;;;1.85;1.30;;;22.90;73.70;;;;;;5072757;28;20066;-70
2021/01/02 06:49:52;;;;;;;1.25;1.15;;;23.00;73.80;;;;;;5066890;28;20040;-70
2021/01/02 06:52:33;;;;;;;1.48;1.38;;;22.90;73.80;;;;;;5081982;28;20442;-68
2021/01/02 06:55:19;;;;;;;;;;;22.90;73.80;;;;;;5074607;28;20059;-70
2021/01/02 06:57:53;;;;;;;1.63;1.52;;;22.90;73.80;;;;;;5072088;28;20407;-71
2021/01/02 07:00:27;;;;;;;2.53;1.23;;;22.90;73.80;;;;;;5064612;28;20052;-68
2021/01/02 07:02:58;;;;;;;1.33;1.00;;;22.90;73.90;;;;;;5066372;28;20059;-68
2021/01/02 07:05:49;;;;;;;1.48;1.15;;;22.90;73.80;;;;;;5071913;28;20047;-70
2021/01/02 07:08:49;;;;;;;1.20;1.03;;;22.90;74.00;;;;;;5064463;28;20072;-67
2021/01/02 07:11:34;;;;;;;0.93;0.93;;;22.90;73.90;;;;;;5069533;28;20043;-68
2021/01/02 07:14:17;;;;;;;2.00;1.15;;;22.90;74.00;;;;;;5073999;28;20040;-69
2021/01/02 07:16:52;;;;;;;1.95;1.20;;;22.90;73.90;;;;;;5069001;28;20045;-68
2021/01/02 07:19:32;;;;;;;2.30;1.25;;;22.90;73.90;;;;;;5078144;28;20040;-68
2021/01/02 07:22:20;;;;;;;1.55;1.25;;;22.90;74.00;;;;;;5061161;28;20037;-68
2021/01/02 07:25:05;;;;;;;0.95;0.95;;;22.90;74.10;;;;;;5071898;28;20098;-68
2021/01/02 07:27:37;;;;;;;0.95;0.90;;;22.90;74.00;;;;;;5069541;28;20048;-67
2021/01/02 07:30:14;;;;;;;1.10;1.00;;;22.80;74.00;;;;;;5070483;28;20055;-68
2021/01/02 07:32:47;;;;;;;2.00;1.30;;;22.80;74.00;;;;;;5076088;28;20044;-68
2021/01/02 07:35:17;;;;;;;0.70;0.70;;;22.80;74.00;;;;;;5072366;28;20044;-67
2021/01/02 07:37:48;;;;;;;1.30;1.20;;;22.80;74.00;;;;;;5074390;28;20063;-68
2021/01/02 07:40:20;;;;;;;0.95;0.95;;;22.80;74.10;;;;;;5067403;28;20041;-68
2021/01/02 07:42:54;;;;;;;1.48;1.08;;;22.80;74.10;;;;;;5073509;28;20032;-65
2021/01/02 07:45:30;;;;;;;1.00;1.00;;;22.80;73.90;;;;;;5064828;28;20063;-62
2021/01/02 07:48:02;;;;;;;1.45;1.35;;;22.80;74.00;;;;;;5065381;28;20044;-69
2021/01/02 07:50:33;;;;;;;1.52;1.20;;;22.80;74.00;;;;;;5065381;28;20432;-69
2021/01/02 07:53:04;;;;;;;2.25;1.00;;;22.80;73.90;;;;;;5070669;28;20040;-70
2021/01/02 07:55:35;;;;;;;1.20;1.10;;;22.80;73.90;;;;;;5068588;28;20045;-69
2021/01/02 07:58:08;;;;;;;3.10;1.38;;;22.80;74.10;;;;;;5069312;28;20036;-70
2021/01/02 08:00:38;;;;;;;1.20;1.10;;;22.70;73.90;;;;;;5079428;28;20129;-69
2021/01/02 08:03:09;;;;;;;1.50;1.10;;;22.70;74.00;;;;;;5068403;28;20065;-68
2021/01/02 08:05:43;;;;;;;1.33;1.23;;;22.70;74.00;;;;;;5078713;28;20041;-60
2021/01/02 08:08:20;;;;;;;1.10;1.00;;;22.80;74.00;;;;;;5073597;28;20102;-68
2021/01/02 08:10:52;;;;;;;1.23;0.93;;;22.70;74.00;;;;;;5066869;28;20044;-62
2021/01/02 08:13:26;;;;;;;1.33;0.93;;;22.70;74.00;;;;;;5073334;28;20496;-62
2021/01/02 08:15:56;;;;;;;1.10;1.00;;;22.70;73.90;;;;;;5074973;28;20063;-69
2021/01/02 08:18:27;;;;;;;1.85;1.05;;;22.70;74.00;;;;;;5064591;28;20037;-68
2021/01/02 08:21:04;;;;;;;0.80;0.80;;;22.70;74.00;;;;;;5080577;28;20047;-69
2021/01/02 08:23:34;;;;;;;1.33;0.90;;;22.70;74.00;;;;;;5069721;28;20032;-62
2021/01/02 08:26:04;;;;;;;3.70;1.08;;;22.70;74.00;;;;;;5073865;28;20055;-62
2021/01/02 08:28:34;;;;;;;1.20;1.20;;;22.60;73.90;;;;;;5075954;28;20044;-68
2021/01/02 08:31:05;;;;;;;1.73;1.13;;;22.60;74.50;;;;;;5072610;28;20036;-68
2021/01/02 08:33:38;;;;;;;0.88;0.85;;;22.60;74.00;;;;;;5066558;28;20428;-62
2021/01/02 08:36:15;;;;;;;1.17;0.95;;;22.60;74.00;;;;;;5073578;28;20089;-60
2021/01/02 08:38:55;;;;;;;1.05;0.70;;;22.60;73.90;;;;;;5070517;28;20051;-60
2021/01/02 08:41:27;;;;;;;1.05;0.95;;;22.60;74.00;;;;;;5080359;28;20144;-60
2021/01/02 08:43:59;;;;;;;0.98;0.82;;;22.60;74.00;;;;;;5064496;28;20089;-60
2021/01/02 08:46:30;;;;;;;0.70;0.70;;;22.60;73.90;;;;;;5068242;28;20699;-58
2021/01/02 08:49:02;;;;;;;0.90;0.90;;;22.60;74.00;;;;;;5068835;28;20078;-63
2021/01/02 08:51:33;;;;;;;1.27;0.90;;;22.60;73.90;;;;;;5070641;28;20043;-60
2021/01/02 08:54:28;;;;;;;1.08;1.02;;;22.60;74.00;;;;;;5070239;28;20036;-62
2021/01/02 08:56:59;;;;;;;0.90;0.90;;;22.60;74.00;;;;;;5065768;28;20051;-61
2021/01/02 08:59:29;;;;;;;1.10;1.08;;;22.60;74.00;;;;;;5063501;28;20128;-62
2021/01/02 09:01:59;;;;;;;0.93;0.93;;;22.50;74.00;;;;;;5064979;28;20132;-60
2021/01/02 09:04:33;;;;;;;1.15;1.10;;;22.50;73.90;;;;;;5068379;28;20720;-62
2021/01/02 09:07:07;;;;;;;2.13;1.25;;;22.50;74.50;;;;;;5079681;28;20062;-62
2021/01/02 09:09:41;;;;;;;0.80;0.80;;;22.50;74.00;;;;;;5069197;28;20047;-62
2021/01/02 09:12:15;;;;;;;1.00;1.00;;;22.50;73.80;;;;;;5070220;28;20051;-62
2021/01/02 09:14:53;;;;;;;1.30;1.20;;;22.40;73.90;;;;;;5069260;28;20048;-61
2021/01/02 09:17:23;;;;;;;0.90;0.90;;;22.50;74.00;;;;;;5062264;28;20036;-61
2021/01/02 09:20:14;;;;;;;0.80;0.80;;;22.40;73.90;;;;;;5069639;28;20059;-61
2021/01/02 09:22:56;;;;;;;1.33;1.10;;;22.40;73.90;;;;;;5073625;28;20086;-61
2021/01/02 09:25:31;;;;;;;1.33;0.80;;;22.40;74.00;;;;;;5064014;28;20040;-61
2021/01/02 09:28:18;;;;;;;1.25;1.05;;;22.40;74.00;;;;;;5066534;28;20048;-62
2021/01/02 09:30:50;;;;;;;1.10;0.95;;;22.40;74.00;;;;;;5072747;28;20392;-62
2021/01/02 09:33:20;;;;;;;0.82;0.82;;;22.40;73.90;;;;;;5067219;28;20056;-61
2021/01/02 09:35:50;;;;;;;1.20;1.10;;;22.40;74.30;;;;;;5068034;28;20072;-61
2021/01/02 09:38:19;;;;;;;1.50;0.90;;;22.40;73.90;;;;;;5070563;28;20471;-61
2021/01/02 09:40:49;;;;;;;1.73;1.45;;;22.30;73.90;;;;;;5074450;28;20072;-62
2021/01/02 09:43:21;;;;;;;1.60;1.00;;;22.40;73.80;;;;;;5061522;28;20040;-61
2021/01/02 09:45:51;;;;;;;2.33;1.40;;;22.30;73.80;;;;;;5070129;28;20040;-61
2021/01/02 09:48:22;;;;;;;0.88;0.88;;;22.30;73.90;;;;;;5064375;28;20147;-61
2021/01/02 09:50:52;;;;;;;1.95;1.10;;;22.30;73.90;;;;;;5073982;28;20063;-62
2021/01/02 09:53:24;;;;;;;1.10;0.93;;;22.30;73.90;;;;;;5078156;28;20048;-61
2021/01/02 09:55:56;;;;;;;;;;;22.30;73.90;;;;;;5066153;28;20075;-61
2021/01/02 09:58:29;;;;;;;0.90;0.90;;;22.30;73.90;;;;;;5065712;28;19975;-62
2021/01/02 10:00:59;;;;;;;1.00;1.00;;;22.30;73.80;;;;;;5067286;28;20131;-62
2021/01/02 10:03:29;;;;;;;0.80;0.80;;;22.30;73.80;;;;;;5077764;28;20048;-62
2021/01/02 10:06:05;;;;;;;2.25;1.10;;;22.20;73.90;;;;;;5077921;28;20119;-61
2021/01/02 10:08:35;;;;;;;1.30;0.88;;;22.20;73.90;;;;;;5073312;28;20078;-62
2021/01/02 10:11:11;;;;;;;0.82;0.70;;;22.20;73.80;;;;;;5071910;28;20036;-62
2021/01/02 10:13:42;;;;;;;6.57;1.17;;;22.20;73.80;;;;;;5074071;28;20055;-61
2021/01/02 10:16:18;;;;;;;1.30;1.08;;;22.20;73.80;;;;;;5072018;28;20341;-61
2021/01/02 10:18:51;;;;;;;1.00;0.90;;;22.20;73.90;;;;;;5070096;28;20045;-61
2021/01/02 10:21:23;;;;;;;0.85;0.85;;;22.20;73.80;;;;;;5067599;28;20032;-61
2021/01/02 10:23:54;;;;;;;0.85;0.70;;;22.20;73.80;;;;;;5062637;28;20052;-61
2021/01/02 10:26:26;;;;;;;0.93;0.80;;;22.20;73.80;;;;;;5048466;28;20403;-61
2021/01/02 10:28:57;;;;;;;1.75;1.20;;;22.20;73.80;;;;;;5067064;28;20047;-61
2021/01/02 10:31:27;;;;;;;1.00;1.00;;;22.20;73.90;;;;;;5077112;28;20050;-61
2021/01/02 10:33:56;;;;;;;1.00;0.90;;;22.20;73.80;;;;;;5065649;28;20048;-61
2021/01/02 10:36:26;;;;;;;2.05;1.27;;;22.10;74.40;;;;;;5070569;28;20071;-61
2021/01/02 10:38:56;;;;;;;1.02;0.90;;;22.10;73.80;;;;;;5077376;28;20504;-61
2021/01/02 10:41:27;;;;;;;1.20;1.10;;;22.10;73.80;;;;;;5066520;28;20044;-61
2021/01/02 10:43:58;;;;;;;1.00;0.85;;;22.10;73.90;;;;;;5074983;28;20044;-61
2021/01/02 10:46:28;;;;;;;1.23;1.00;;;22.10;73.80;;;;;;5077197;28;20059;-62
2021/01/02 10:48:59;;;;;;;0.82;0.82;;;22.10;73.70;;;;;;5065397;28;20074;-61
2021/01/02 10:51:35;;;;;;;1.10;0.98;;;22.10;73.80;;;;;;5050868;28;20056;-61
2021/01/02 10:54:08;;;;;;;1.55;1.20;;;22.10;73.80;;;;;;5067101;28;20044;-62
2021/01/02 10:56:51;;;;;;;1.08;0.90;;;22.10;73.80;;;;;;5071363;28;20051;-61
2021/01/02 10:59:23;;;;;;;0.90;0.90;;;22.10;73.90;;;;;;5045133;28;20460;-61
2021/01/02 11:01:56;;;;;;;0.88;0.70;;;22.00;73.80;;;;;;5066898;28;20115;-62
2021/01/02 11:04:27;;;;;;;1.33;0.90;;;22.10;73.80;;;;;;5067379;28;20064;-60
2021/01/02 11:07:01;;;;;;;2.15;1.02;;;22.10;73.80;;;;;;5068536;28;20040;-61
2021/01/02 11:09:33;;;;;;;1.10;0.90;;;22.00;73.80;;;;;;5068311;28;20071;-61
2021/01/02 11:12:09;;;;;;;1.65;0.65;;;22.00;73.80;;;;;;5068133;28;20233;-61
2021/01/02 11:14:40;;;;;;;0.75;0.75;;;22.00;73.80;;;;;;5061704;28;20048;-61
2021/01/02 11:17:10;;;;;;;2.13;0.85;;;22.00;73.90;;;;;;5067080;28;20040;-61
2021/01/02 11:19:40;;;;;;;1.27;0.90;;;22.00;73.80;;;;;;5070289;28;20122;-62
2021/01/02 11:22:13;;;;;;;1.13;0.70;;;22.00;73.80;;;;;;5070541;28;20404;-62
2021/01/02 11:24:45;;;;;;;1.15;0.80;;;22.00;73.80;;;;;;5066511;28;20169;-62
2021/01/02 11:27:18;;;;;;;1.13;0.80;;;22.00;73.90;;;;;;5069497;28;20046;-62
2021/01/02 11:29:49;;;;;;;1.23;0.80;;;22.00;73.80;;;;;;5064030;28;20454;-62
2021/01/02 11:32:18;;;;;;;0.95;0.73;;;21.90;73.80;;;;;;5062832;28;20048;-61
2021/01/02 11:34:50;;;;;;;1.30;1.20;;;21.90;73.80;;;;;;5061089;28;23166;-62
2021/01/02 11:37:22;;;;;;;1.20;0.85;;;21.90;73.80;;;;;;5071516;28;20072;-61
2021/01/02 11:39:54;;;;;;;0.60;0.60;;;21.90;73.80;;;;;;5076931;28;20039;-62
2021/01/02 11:42:25;;;;;;;1.33;0.90;;;21.90;73.80;;;;;;5068525;28;20040;-62
2021/01/02 11:44:56;;;;;;;0.98;0.98;;;21.90;73.80;;;;;;5070054;28;20047;-60
2021/01/02 11:47:29;;;;;;;2.33;1.10;;;21.90;73.80;;;;;;5070243;28;20043;-61
2021/01/02 11:50:00;;;;;;;0.70;0.70;;;21.90;73.80;;;;;;5067608;28;20309;-62
2021/01/02 11:52:30;;;;;;;0.60;0.60;;;21.90;73.90;;;;;;5076606;28;20044;-61
2021/01/02 11:55:02;;;;;;;;;;;21.90;73.90;;;;;;5083807;28;20221;-61
2021/01/02 11:57:34;;;;;;;1.05;1.00;;;21.80;73.80;;;;;;5080657;28;19931;-61
2021/01/02 12:00:11;;;;;;;0.88;0.88;;;21.80;73.80;;;;;;5073743;28;20036;-61
2021/01/02 12:02:43;;;;;;;1.08;0.70;;;21.80;73.80;;;;;;5078404;28;20040;-61
2021/01/02 12:05:14;;;;;;;1.35;1.00;;;21.80;73.80;;;;;;5078570;28;20044;-60
2021/01/02 12:07:46;;;;;;;1.20;0.93;;;21.80;73.90;;;;;;5080384;28;20559;-61
2021/01/02 12:10:18;;;;;;;0.95;0.90;;;21.70;73.80;;;;;;5079146;28;20051;-61
2021/01/02 12:12:56;;;;;;;0.70;0.70;;;21.70;73.80;;;;;;5078065;28;20044;-61
2021/01/02 12:15:28;;;;;;;0.93;0.80;;;21.70;73.90;;;;;;5079070;28;20115;-62
2021/01/02 12:17:58;;;;;;;2.22;1.10;;;21.70;73.80;;;;;;5054136;28;20419;-60
2021/01/02 12:20:28;;;;;;;0.90;0.70;;;21.70;73.80;;;;;;5071938;28;20083;-60
2021/01/02 12:22:59;;;;;;;;;;;21.70;73.80;;;;;;5069465;28;20028;-60
2021/01/02 12:25:28;;;;;;;0.82;0.82;;;21.70;73.90;;;;;;5076684;28;19970;-59
2021/01/02 12:27:58;;;;;;;0.73;0.70;;;21.70;73.90;;;;;;5070077;28;20053;-60
2021/01/02 12:30:29;;;;;;;0.95;0.80;;;21.70;73.90;;;;;;5076415;28;20537;-60
2021/01/02 12:32:59;;;;;;;1.60;1.00;;;21.70;73.90;;;;;;5076668;28;20589;-59
2021/01/02 12:35:29;;;;;;;0.80;0.80;;;21.60;73.90;;;;;;5077684;28;20051;-60
2021/01/02 12:37:59;;;;;;;0.90;0.90;;;21.60;73.90;;;;;;5065472;28;20037;-60
2021/01/02 12:40:29;;;;;;;1.10;1.00;;;21.60;73.80;;;;;;5073766;28;20318;-60
2021/01/02 12:43:01;;;;;;;0.82;0.73;;;21.60;73.90;;;;;;5062016;28;20051;-60
2021/01/02 12:45:35;;;;;;;1.13;1.05;;;21.60;73.90;;;;;;5057608;28;20056;-61
2021/01/02 12:48:06;;;;;;;0.80;0.80;;;21.60;73.90;;;;;;5072910;28;20517;-61
2021/01/02 12:50:36;;;;;;;1.30;1.20;;;21.60;73.80;;;;;;5080650;28;20130;-61
2021/01/02 12:53:08;;;;;;;3.20;1.13;;;21.60;73.90;;;;;;5063983;28;20131;-61
2021/01/02 12:55:39;;;;;;;1.02;0.90;;;21.60;73.90;;;;;;5070574;28;20125;-60
2021/01/02 12:58:11;;;;;;;1.77;0.90;;;21.60;73.90;;;;;;5073912;28;20063;-61
2021/01/02 13:00:44;;;;;;;1.65;1.02;;;21.60;73.90;;;;;;5078158;28;20075;-62
2021/01/02 13:03:15;;;;;;;1.52;1.00;;;21.60;73.90;;;;;;5073612;28;20045;-61
2021/01/02 13:05:49;;;;;;;2.03;0.90;;;21.50;74.50;;;;;;5067479;28;20044;-62
2021/01/02 13:08:27;;;;;;;1.15;0.80;;;21.50;73.90;;;;;;5068497;28;20101;-62
2021/01/02 13:10:57;;;;;;;0.70;0.65;;;21.50;73.90;;;;;;5078128;28;22560;-61
2021/01/02 13:13:29;;;;;;;1.23;0.80;;;21.50;73.90;;;;;;5074629;28;20048;-60
2021/01/02 13:16:04;;;;;;;1.85;0.60;;;21.50;73.90;;;;;;5066616;28;20049;-61
2021/01/02 13:18:33;;;;;;;1.42;1.02;;;21.50;73.90;;;;;;5077562;28;20176;-61
2021/01/02 13:21:06;;;;;;;1.90;0.85;;;21.50;74.00;;;;;;5070637;28;20032;-62
2021/01/02 13:23:41;;;;;;;1.23;0.90;;;21.50;74.00;;;;;;5060919;28;20450;-61
2021/01/02 13:26:15;;;;;;;1.58;0.80;;;21.50;74.00;;;;;;5073407;28;20131;-61